createdAt,value
2019-02-11T00:00:25.033Z,66.75415
2019-02-11T00:01:34.541Z,66.650391
2019-02-11T00:02:44.079Z,66.85791
2019-02-11T00:03:59.390Z,66.96167
2019-02-11T00:05:04.093Z,66.75415
2019-02-11T00:06:13.615Z,66.96167
2019-02-11T00:07:23.130Z,67.584229
2019-02-11T00:08:32.650Z,67.480469
2019-02-11T00:09:42.192Z,67.895508
2019-02-11T00:10:51.718Z,67.895508
2019-02-11T00:12:01.236Z,67.822266
2019-02-11T00:13:11.039Z,67.687988
2019-02-11T00:14:20.268Z,67.822266
2019-02-11T00:15:29.769Z,67.822266
2019-02-11T00:16:39.394Z,68.133545
2019-02-11T00:17:48.918Z,68.444824
2019-02-11T00:18:58.459Z,68.652344
2019-02-11T00:20:08.066Z,68.341064
2019-02-11T00:21:17.583Z,67.926025
2019-02-11T00:22:27.115Z,67.926025
2019-02-11T00:23:36.631Z,67.926025
2019-02-11T00:24:46.160Z,68.341064
2019-02-11T00:25:55.681Z,68.341064
2019-02-11T00:27:05.221Z,68.341064
2019-02-11T00:28:14.735Z,68.792725
2019-02-11T00:29:24.252Z,68.896484
2019-02-11T00:30:34.772Z,68.792725
2019-02-11T00:31:44.294Z,68.688965
2019-02-11T00:32:53.906Z,68.896484
2019-02-11T00:34:03.311Z,68.896484
2019-02-11T00:35:12.844Z,68.896484
2019-02-11T00:36:23.355Z,68.896484
2019-02-11T00:37:32.882Z,69.207764
2019-02-11T00:38:42.396Z,69.104004
2019-02-11T00:39:51.956Z,69.104004
2019-02-11T00:41:01.482Z,68.377686
2019-02-11T00:42:11.012Z,68.481445
2019-02-11T00:43:20.514Z,68.688965
2019-02-11T00:44:30.033Z,68.792725
2019-02-11T00:45:39.547Z,68.896484
2019-02-11T00:46:49.073Z,68.585205
2019-02-11T00:47:58.584Z,68.688965
2019-02-11T00:49:08.097Z,68.896484
2019-02-11T00:50:17.620Z,69.000244
2019-02-11T00:51:27.134Z,69.104004
2019-02-11T00:52:36.641Z,69.311523
2019-02-11T00:53:47.696Z,68.896484
2019-02-11T00:54:55.691Z,68.896484
2019-02-11T00:56:05.210Z,68.688965
2019-02-11T00:57:15.706Z,68.896484
2019-02-11T00:58:25.225Z,68.792725
2019-02-11T00:59:34.762Z,68.896484
2019-02-11T01:00:44.285Z,69.104004
2019-02-11T01:01:53.786Z,69.207764
2019-02-11T01:03:03.324Z,69.549561
2019-02-11T01:04:12.849Z,69.65332
2019-02-11T01:05:22.401Z,69.207764
2019-02-11T01:06:31.915Z,69.519043
2019-02-11T01:07:41.420Z,69.311523
2019-02-11T01:08:50.931Z,69.445801
2019-02-11T01:10:00.492Z,69.415283
2019-02-11T01:11:09.964Z,69.311523
2019-02-11T01:12:19.476Z,69.549561
2019-02-11T01:13:28.969Z,69.549561
2019-02-11T01:14:38.472Z,69.86084
2019-02-11T01:15:47.987Z,69.75708
2019-02-11T01:16:57.521Z,69.75708
2019-02-11T01:18:07.026Z,69.9646
2019-02-11T01:19:16.573Z,69.65332
2019-02-11T01:20:26.113Z,69.549561
2019-02-11T01:21:35.654Z,69.65332
2019-02-11T01:22:45.182Z,69.65332
2019-02-11T01:23:54.722Z,69.75708
2019-02-11T01:25:04.226Z,69.86084
2019-02-11T01:26:13.761Z,70.172119
2019-02-11T01:27:23.267Z,69.86084
2019-02-11T01:28:32.797Z,69.86084
2019-02-11T01:29:42.309Z,69.65332
2019-02-11T01:30:51.860Z,69.75708
2019-02-11T01:32:01.404Z,69.75708
2019-02-11T01:33:10.932Z,69.9646
2019-02-11T01:34:20.440Z,69.86084
2019-02-11T01:35:29.969Z,70.068359
2019-02-11T01:36:39.521Z,70.379639
2019-02-11T01:37:49.047Z,70.587158
2019-02-11T01:38:58.564Z,70.587158
2019-02-11T01:40:08.082Z,70.275879
2019-02-11T01:41:17.613Z,70.068359
2019-02-11T01:42:27.143Z,70.275879
2019-02-11T01:43:36.665Z,70.172119
2019-02-11T01:44:46.182Z,69.9646
2019-02-11T01:45:55.708Z,69.86084
2019-02-11T01:47:05.228Z,70.068359
2019-02-11T01:48:14.733Z,70.068359
2019-02-11T01:49:24.251Z,69.9646
2019-02-11T01:50:33.797Z,69.86084
2019-02-11T01:51:43.317Z,69.86084
2019-02-11T01:52:52.870Z,70.068359
2019-02-11T01:54:02.389Z,70.379639
2019-02-11T01:55:11.915Z,70.483398
2019-02-11T01:56:21.467Z,70.483398
2019-02-11T01:57:31.041Z,70.794678
2019-02-11T01:58:40.507Z,71.002197
2019-02-11T01:59:50.026Z,71.002197
2019-02-11T02:00:59.549Z,71.209717
2019-02-11T02:02:09.132Z,71.105957
2019-02-11T02:03:18.640Z,71.002197
2019-02-11T02:04:28.171Z,71.313477
2019-02-11T02:05:37.708Z,71.105957
2019-02-11T02:06:47.223Z,71.313477
2019-02-11T02:07:56.745Z,71.105957
2019-02-11T02:09:06.267Z,70.898438
2019-02-11T02:10:15.765Z,70.794678
2019-02-11T02:11:25.299Z,70.483398
2019-02-11T02:12:34.819Z,70.379639
2019-02-11T02:13:44.971Z,70.587158
2019-02-11T02:14:53.846Z,70.690918
2019-02-11T02:16:03.398Z,70.794678
2019-02-11T02:17:12.906Z,70.587158
2019-02-11T02:18:22.427Z,70.794678
2019-02-11T02:19:31.946Z,70.898438
2019-02-11T02:20:41.469Z,70.794678
2019-02-11T02:21:50.989Z,70.587158
2019-02-11T02:23:00.513Z,70.172119
2019-02-11T02:24:10.041Z,70.587158
2019-02-11T02:25:19.545Z,70.379639
2019-02-11T02:26:29.074Z,70.379639
2019-02-11T02:27:38.611Z,70.483398
2019-02-11T02:28:48.116Z,70.587158
2019-02-11T02:29:57.660Z,70.587158
2019-02-11T02:31:07.204Z,70.690918
2019-02-11T02:32:16.728Z,70.794678
2019-02-11T02:33:26.257Z,70.898438
2019-02-11T02:34:35.780Z,71.313477
2019-02-11T02:35:45.285Z,71.447754
2019-02-11T02:36:54.780Z,71.417236
2019-02-11T02:38:04.299Z,71.417236
2019-02-11T02:39:13.855Z,71.520996
2019-02-11T02:40:23.385Z,71.759033
2019-02-11T02:41:32.920Z,71.862793
2019-02-11T02:42:42.450Z,71.966553
2019-02-11T02:43:55.301Z,71.862793
2019-02-11T02:45:01.477Z,71.966553
2019-02-11T02:46:10.978Z,71.862793
2019-02-11T02:47:20.489Z,71.862793
2019-02-11T02:48:30.030Z,72.070312
2019-02-11T02:49:39.558Z,72.277832
2019-02-11T02:50:49.068Z,72.485352
2019-02-11T02:51:58.606Z,72.485352
2019-02-11T02:53:08.110Z,72.692871
2019-02-11T02:54:17.654Z,73.00415
2019-02-11T02:55:27.197Z,73.114014
2019-02-11T02:56:36.724Z,73.529053
2019-02-11T02:57:46.273Z,73.840332
2019-02-11T02:58:55.802Z,74.078369
2019-02-11T03:00:05.341Z,74.389648
2019-02-11T03:01:14.855Z,74.389648
2019-02-11T03:02:24.369Z,74.389648
2019-02-11T03:03:33.930Z,74.493408
2019-02-11T03:04:43.458Z,74.597168
2019-02-11T03:05:53.185Z,74.804688
2019-02-11T03:07:02.484Z,75.219727
2019-02-11T03:08:12.009Z,75.43335
2019-02-11T03:09:21.524Z,75.775146
2019-02-11T03:10:31.050Z,75.878906
2019-02-11T03:11:40.564Z,76.086426
2019-02-11T03:12:50.129Z,76.190186
2019-02-11T03:14:05.564Z,76.293945
2019-02-11T03:15:10.182Z,76.397705
2019-02-11T03:16:19.705Z,76.507568
2019-02-11T03:17:29.222Z,76.922607
2019-02-11T03:18:38.739Z,77.233887
2019-02-11T03:19:48.267Z,77.581787
2019-02-11T03:20:57.788Z,77.893066
2019-02-11T03:22:07.309Z,78.619385
2019-02-11T03:23:16.826Z,79.760742
2019-02-11T03:24:26.333Z,80.944824
2019-02-11T03:25:35.846Z,81.878662
2019-02-11T03:26:45.365Z,82.543945
2019-02-11T03:27:54.878Z,82.855225
2019-02-11T03:29:04.456Z,82.440186
2019-02-11T03:30:13.989Z,82.647705
2019-02-11T03:31:23.516Z,82.647705
2019-02-11T03:32:33.040Z,82.958984
2019-02-11T03:33:42.554Z,83.374023
2019-02-11T03:34:52.054Z,83.166504
2019-02-11T03:36:01.583Z,83.062744
2019-02-11T03:37:11.106Z,83.270264
2019-02-11T03:38:20.635Z,83.270264
2019-02-11T03:39:30.163Z,83.270264
2019-02-11T03:40:39.704Z,83.166504
2019-02-11T03:41:49.236Z,82.751465
2019-02-11T03:42:58.742Z,82.580566
2019-02-11T03:44:14.762Z,82.373047
2019-02-11T03:45:18.776Z,82.269287
2019-02-11T03:46:28.274Z,82.373047
2019-02-11T03:47:37.821Z,81.811523
2019-02-11T03:48:47.383Z,81.707764
2019-02-11T03:49:56.877Z,81.292725
2019-02-11T03:51:06.391Z,81.188965
2019-02-11T03:52:15.915Z,80.151367
2019-02-11T03:53:25.443Z,80.047607
2019-02-11T03:54:35.002Z,79.943848
2019-02-11T03:55:44.509Z,80.151367
2019-02-11T03:56:54.049Z,79.315186
2019-02-11T03:58:03.569Z,79.278564
2019-02-11T03:59:13.118Z,78.863525
2019-02-11T04:00:22.614Z,78.240967
2019-02-11T04:01:32.153Z,78.448486
2019-02-11T04:02:41.718Z,78.137207
2019-02-11T04:03:51.235Z,77.722168
2019-02-11T04:05:00.746Z,77.929688
2019-02-11T04:06:10.279Z,77.722168
2019-02-11T04:07:19.810Z,77.508545
2019-02-11T04:08:29.365Z,77.197266
2019-02-11T04:09:38.866Z,76.574707
2019-02-11T04:10:48.381Z,76.678467
2019-02-11T04:11:57.917Z,76.678467
2019-02-11T04:13:07.461Z,76.678467
2019-02-11T04:14:24.370Z,76.885986
2019-02-11T04:15:28.484Z,76.922607
2019-02-11T04:16:39.006Z,76.922607
2019-02-11T04:17:48.568Z,76.507568
2019-02-11T04:18:58.068Z,76.470947
2019-02-11T04:20:07.587Z,76.611328
2019-02-11T04:21:16.081Z,76.818848
2019-02-11T04:22:25.641Z,76.818848
2019-02-11T04:23:35.160Z,76.922607
2019-02-11T04:24:44.682Z,77.026367
2019-02-11T04:25:54.209Z,76.715088
2019-02-11T04:27:03.763Z,76.611328
2019-02-11T04:28:13.321Z,76.507568
2019-02-11T04:29:22.824Z,76.611328
2019-02-11T04:30:32.346Z,76.403809
2019-02-11T04:31:41.862Z,76.403809
2019-02-11T04:32:51.410Z,76.300049
2019-02-11T04:34:00.923Z,76.611328
2019-02-11T04:35:10.463Z,76.611328
2019-02-11T04:36:19.966Z,76.611328
2019-02-11T04:37:29.498Z,76.507568
2019-02-11T04:38:39.047Z,76.196289
2019-02-11T04:39:48.559Z,75.982666
2019-02-11T04:40:58.072Z,75.775146
2019-02-11T04:42:07.612Z,75.256348
2019-02-11T04:43:17.149Z,75.360107
2019-02-11T04:44:33.759Z,75.463867
2019-02-11T04:45:37.152Z,75.463867
2019-02-11T04:46:46.674Z,75.360107
2019-02-11T04:47:56.220Z,75.152588
2019-02-11T04:49:05.751Z,75.012207
2019-02-11T04:50:15.245Z,74.908447
2019-02-11T04:51:24.747Z,74.908447
2019-02-11T04:52:34.262Z,74.908447
2019-02-11T04:53:43.815Z,75.115967
2019-02-11T04:54:53.339Z,74.908447
2019-02-11T04:56:02.858Z,74.700928
2019-02-11T04:57:12.390Z,74.804688
2019-02-11T04:58:21.924Z,74.804688
2019-02-11T04:59:31.430Z,74.908447
2019-02-11T05:00:40.938Z,74.804688
2019-02-11T05:01:50.475Z,75.012207
2019-02-11T05:03:00.010Z,75.115967
2019-02-11T05:04:09.542Z,75.323486
2019-02-11T05:05:19.074Z,75.219727
2019-02-11T05:06:28.603Z,75.115967
2019-02-11T05:07:38.122Z,75.115967
2019-02-11T05:08:47.678Z,75.323486
2019-02-11T05:09:57.186Z,75.427246
2019-02-11T05:11:06.711Z,74.908447
2019-02-11T05:12:16.242Z,74.908447
2019-02-11T05:13:25.897Z,75.115967
2019-02-11T05:14:43.425Z,74.908447
2019-02-11T05:15:46.029Z,74.908447
2019-02-11T05:16:55.536Z,74.700928
2019-02-11T05:18:05.078Z,74.597168
2019-02-11T05:19:14.580Z,74.804688
2019-02-11T05:20:24.103Z,74.700928
2019-02-11T05:21:33.625Z,74.597168
2019-02-11T05:22:43.149Z,74.804688
2019-02-11T05:23:52.696Z,74.493408
2019-02-11T05:25:02.203Z,74.597168
2019-02-11T05:26:11.710Z,74.493408
2019-02-11T05:27:21.261Z,74.597168
2019-02-11T05:28:30.821Z,74.804688
2019-02-11T05:29:40.345Z,74.908447
2019-02-11T05:30:49.898Z,75.115967
2019-02-11T05:31:59.425Z,75.323486
2019-02-11T05:33:08.960Z,75.537109
2019-02-11T05:34:18.520Z,76.055908
2019-02-11T05:35:28.040Z,76.470947
2019-02-11T05:36:37.539Z,77.233887
2019-02-11T05:37:47.034Z,77.648926
2019-02-11T05:38:56.606Z,78.277588
2019-02-11T05:40:06.131Z,78.900146
2019-02-11T05:41:16.077Z,79.522705
2019-02-11T05:42:25.719Z,80.706787
2019-02-11T05:43:35.346Z,81.018066
2019-02-11T05:44:53.543Z,81.994629
2019-02-11T05:45:55.393Z,82.720947
2019-02-11T05:47:04.996Z,83.453369
2019-02-11T05:48:14.508Z,83.972168
2019-02-11T05:49:24.052Z,84.844971
2019-02-11T05:50:33.562Z,85.784912
2019-02-11T05:51:43.076Z,86.303711
2019-02-11T05:52:53.605Z,86.199951
2019-02-11T05:54:03.175Z,86.828613
2019-02-11T05:55:12.686Z,87.597656
2019-02-11T05:56:22.206Z,87.701416
2019-02-11T05:57:31.727Z,88.220215
2019-02-11T05:58:41.281Z,88.745117
2019-02-11T05:59:50.805Z,88.848877
2019-02-11T06:01:00.307Z,89.51416
2019-02-11T06:02:09.827Z,89.61792
2019-02-11T06:03:19.347Z,90.142822
2019-02-11T06:04:28.895Z,90.557861
2019-02-11T06:05:38.414Z,90.869141
2019-02-11T06:06:47.933Z,91.290283
2019-02-11T06:07:57.439Z,91.748047
2019-02-11T06:09:06.972Z,91.955566
2019-02-11T06:10:16.477Z,92.163086
2019-02-11T06:11:26.098Z,92.370605
2019-02-11T06:12:35.619Z,92.370605
2019-02-11T06:13:45.130Z,92.791748
2019-02-11T06:15:03.632Z,92.999268
2019-02-11T06:16:05.134Z,93.206787
2019-02-11T06:17:14.650Z,93.457031
2019-02-11T06:18:24.230Z,93.457031
2019-02-11T06:19:33.770Z,93.457031
2019-02-11T06:20:43.296Z,93.670654
2019-02-11T06:21:52.820Z,93.878174
2019-02-11T06:23:02.340Z,94.085693
2019-02-11T06:24:11.879Z,94.085693
2019-02-11T06:25:21.385Z,94.293213
2019-02-11T06:26:30.905Z,94.293213
2019-02-11T06:27:40.441Z,94.396973
2019-02-11T06:28:49.989Z,94.500732
2019-02-11T06:29:59.512Z,94.818115
2019-02-11T06:31:09.058Z,95.025635
2019-02-11T06:32:18.583Z,95.129395
2019-02-11T06:33:28.102Z,95.379639
2019-02-11T06:34:37.634Z,95.440674
2019-02-11T06:35:48.152Z,95.550537
2019-02-11T06:36:57.688Z,95.697021
2019-02-11T06:38:07.197Z,95.654297
2019-02-11T06:39:16.756Z,95.758057
2019-02-11T06:40:26.278Z,95.758057
2019-02-11T06:41:35.809Z,95.861816
2019-02-11T06:42:45.341Z,95.861816
2019-02-11T06:43:54.877Z,95.861816
2019-02-11T06:45:12.434Z,95.965576
2019-02-11T06:46:14.958Z,95.965576
2019-02-11T06:47:24.471Z,95.965576
2019-02-11T06:48:33.998Z,95.965576
2019-02-11T06:49:43.536Z,95.965576
2019-02-11T06:50:53.059Z,95.861816
2019-02-11T06:52:02.568Z,95.654297
2019-02-11T06:53:12.084Z,95.654297
2019-02-11T06:54:22.631Z,95.861816
2019-02-11T06:55:32.178Z,95.758057
2019-02-11T06:56:41.704Z,95.758057
2019-02-11T06:57:51.234Z,95.758057
2019-02-11T06:59:00.771Z,95.861816
2019-02-11T07:00:10.331Z,95.965576
2019-02-11T07:01:19.862Z,96.069336
2019-02-11T07:02:29.400Z,96.069336
2019-02-11T07:03:38.908Z,96.069336
2019-02-11T07:04:48.502Z,96.173096
2019-02-11T07:05:58.099Z,95.861816
2019-02-11T07:07:07.638Z,95.758057
2019-02-11T07:08:17.158Z,95.758057
2019-02-11T07:09:26.682Z,95.861816
2019-02-11T07:10:36.212Z,95.861816
2019-02-11T07:11:45.718Z,96.008301
2019-02-11T07:12:55.226Z,96.008301
2019-02-11T07:14:04.727Z,95.904541
2019-02-11T07:15:21.461Z,95.800781
2019-02-11T07:16:24.843Z,95.800781
2019-02-11T07:17:34.366Z,95.904541
2019-02-11T07:18:43.885Z,95.697021
2019-02-11T07:19:53.634Z,95.697021
2019-02-11T07:21:03.171Z,95.379639
2019-02-11T07:22:12.705Z,95.379639
2019-02-11T07:23:22.234Z,95.379639
2019-02-11T07:24:31.759Z,95.379639
2019-02-11T07:25:41.308Z,95.489502
2019-02-11T07:26:50.817Z,95.697021
2019-02-11T07:28:00.335Z,95.593262
2019-02-11T07:29:09.847Z,95.800781
2019-02-11T07:30:19.410Z,96.008301
2019-02-11T07:31:28.943Z,96.21582
2019-02-11T07:32:38.458Z,96.325684
2019-02-11T07:33:48.093Z,96.21582
2019-02-11T07:34:57.618Z,96.008301
2019-02-11T07:36:07.135Z,96.008301
2019-02-11T07:37:16.667Z,96.112061
2019-02-11T07:38:26.177Z,96.21582
2019-02-11T07:39:35.713Z,96.325684
2019-02-11T07:40:45.282Z,96.325684
2019-02-11T07:41:54.761Z,96.429443
2019-02-11T07:43:04.279Z,96.429443
2019-02-11T07:44:13.789Z,96.533203
2019-02-11T07:45:29.821Z,96.636963
2019-02-11T07:46:33.831Z,96.740723
2019-02-11T07:47:43.335Z,96.429443
2019-02-11T07:48:52.849Z,96.008301
2019-02-11T07:50:02.393Z,96.112061
2019-02-11T07:51:11.910Z,96.740723
2019-02-11T07:52:26.598Z,96.948242
2019-02-11T07:53:31.965Z,97.052002
2019-02-11T07:54:41.526Z,96.948242
2019-02-11T07:55:51.077Z,96.844482
2019-02-11T07:57:00.615Z,96.844482
2019-02-11T07:58:10.136Z,96.801758
2019-02-11T07:59:19.670Z,96.697998
2019-02-11T08:00:29.226Z,96.594238
2019-02-11T08:01:38.742Z,96.594238
2019-02-11T08:02:48.259Z,96.697998
2019-02-11T08:03:57.813Z,96.697998
2019-02-11T08:05:07.474Z,96.594238
2019-02-11T08:06:16.998Z,96.594238
2019-02-11T08:07:26.535Z,96.380615
2019-02-11T08:08:36.053Z,96.069336
2019-02-11T08:09:45.570Z,95.965576
2019-02-11T08:10:55.129Z,95.861816
2019-02-11T08:12:04.650Z,95.861816
2019-02-11T08:13:14.171Z,96.008301
2019-02-11T08:14:23.673Z,96.112061
2019-02-11T08:15:38.359Z,96.325684
2019-02-11T08:16:43.786Z,96.429443
2019-02-11T08:17:53.346Z,96.429443
2019-02-11T08:19:02.866Z,96.636963
2019-02-11T08:20:12.402Z,96.636963
2019-02-11T08:21:21.912Z,96.948242
2019-02-11T08:22:31.441Z,97.265625
2019-02-11T08:23:40.955Z,97.30835
2019-02-11T08:24:50.520Z,97.412109
2019-02-11T08:26:00.072Z,97.515869
2019-02-11T08:27:09.584Z,97.515869
2019-02-11T08:28:19.698Z,97.412109
2019-02-11T08:29:28.616Z,97.723389
2019-02-11T08:30:38.156Z,97.833252
2019-02-11T08:31:47.666Z,98.040771
2019-02-11T08:32:57.206Z,98.040771
2019-02-11T08:34:06.779Z,98.040771
2019-02-11T08:35:16.292Z,98.248291
2019-02-11T08:36:25.823Z,98.248291
2019-02-11T08:37:35.349Z,98.352051
2019-02-11T08:38:44.887Z,98.352051
2019-02-11T08:39:54.431Z,98.455811
2019-02-11T08:41:03.987Z,98.55957
2019-02-11T08:42:13.510Z,98.55957
2019-02-11T08:43:23.046Z,98.669434
2019-02-11T08:44:33.643Z,98.608398
2019-02-11T08:45:46.954Z,98.608398
2019-02-11T08:46:52.633Z,98.815918
2019-02-11T08:48:02.159Z,98.815918
2019-02-11T08:49:11.715Z,98.919678
2019-02-11T08:50:21.242Z,98.919678
2019-02-11T08:51:30.763Z,98.919678
2019-02-11T08:52:40.287Z,98.919678
2019-02-11T08:53:49.797Z,99.023438
2019-02-11T08:54:59.311Z,99.023438
2019-02-11T08:56:08.824Z,99.023438
2019-02-11T08:57:18.338Z,99.023438
2019-02-11T08:58:28.851Z,99.023438
2019-02-11T08:59:38.387Z,99.127197
2019-02-11T09:00:47.911Z,99.127197
2019-02-11T09:01:57.443Z,99.237061
2019-02-11T09:03:07.042Z,99.237061
2019-02-11T09:04:18.889Z,99.237061
2019-02-11T09:05:26.028Z,99.127197
2019-02-11T09:06:35.549Z,99.34082
2019-02-11T09:07:45.073Z,99.34082
2019-02-11T09:08:54.614Z,99.34082
2019-02-11T09:10:04.132Z,99.34082
2019-02-11T09:11:13.703Z,99.34082
2019-02-11T09:12:23.232Z,99.34082
2019-02-11T09:13:32.743Z,99.34082
2019-02-11T09:14:42.273Z,99.34082
2019-02-11T09:15:55.296Z,99.44458
2019-02-11T09:17:01.283Z,99.44458
2019-02-11T09:18:11.789Z,99.34082
2019-02-11T09:19:21.332Z,99.44458
2019-02-11T09:20:30.875Z,99.44458
2019-02-11T09:21:40.397Z,99.34082
2019-02-11T09:22:49.921Z,99.44458
2019-02-11T09:23:59.472Z,99.44458
2019-02-11T09:25:09.060Z,99.44458
2019-02-11T09:26:18.573Z,99.44458
2019-02-11T09:27:28.110Z,99.44458
2019-02-11T09:28:37.656Z,99.44458
2019-02-11T09:29:47.204Z,99.44458
2019-02-11T09:30:56.760Z,99.44458
2019-02-11T09:32:06.305Z,99.54834
2019-02-11T09:33:15.832Z,99.44458
2019-02-11T09:34:25.358Z,99.54834
2019-02-11T09:35:34.897Z,99.54834
2019-02-11T09:36:44.427Z,99.54834
2019-02-11T09:37:53.963Z,99.54834
2019-02-11T09:39:03.480Z,99.54834
2019-02-11T09:40:13.040Z,99.44458
2019-02-11T09:41:22.550Z,99.54834
2019-02-11T09:42:32.053Z,99.54834
2019-02-11T09:43:41.571Z,99.609375
2019-02-11T09:44:51.124Z,99.54834
2019-02-11T09:46:03.827Z,99.54834
2019-02-11T09:47:10.170Z,99.6521
2019-02-11T09:48:19.696Z,99.54834
2019-02-11T09:49:29.248Z,99.6521
2019-02-11T09:50:38.816Z,99.609375
2019-02-11T09:51:48.340Z,99.505615
2019-02-11T09:52:57.860Z,99.609375
2019-02-11T09:54:07.380Z,99.505615
2019-02-11T09:55:16.910Z,99.505615
2019-02-11T09:56:26.436Z,99.609375
2019-02-11T09:57:35.945Z,99.395752
2019-02-11T09:58:45.457Z,99.713135
2019-02-11T09:59:55.006Z,99.505615
2019-02-11T10:01:04.532Z,99.291992
2019-02-11T10:02:14.069Z,99.505615
2019-02-11T10:03:23.637Z,99.609375
2019-02-11T10:04:33.184Z,99.609375
2019-02-11T10:05:42.690Z,99.505615
2019-02-11T10:06:52.234Z,99.609375
2019-02-11T10:08:01.779Z,99.609375
2019-02-11T10:09:11.310Z,99.609375
2019-02-11T10:10:20.853Z,99.609375
2019-02-11T10:11:30.401Z,99.609375
2019-02-11T10:12:39.917Z,99.505615
2019-02-11T10:13:49.478Z,99.505615
2019-02-11T10:15:00.012Z,99.505615
2019-02-11T10:16:12.455Z,99.505615
2019-02-11T10:17:19.093Z,99.505615
2019-02-11T10:18:29.642Z,99.395752
2019-02-11T10:19:39.180Z,99.505615
2019-02-11T10:20:48.739Z,99.505615
2019-02-11T10:21:58.260Z,99.395752
2019-02-11T10:23:07.807Z,99.395752
2019-02-11T10:24:17.360Z,99.291992
2019-02-11T10:25:26.904Z,99.395752
2019-02-11T10:26:36.450Z,99.291992
2019-02-11T10:27:46.012Z,99.145508
2019-02-11T10:28:55.563Z,99.145508
2019-02-11T10:30:05.096Z,99.145508
2019-02-11T10:31:14.654Z,99.145508
2019-02-11T10:32:24.203Z,99.041748
2019-02-11T10:33:33.715Z,99.145508
2019-02-11T10:34:43.250Z,99.145508
2019-02-11T10:35:52.771Z,99.145508
2019-02-11T10:37:02.289Z,99.145508
2019-02-11T10:38:11.796Z,99.145508
2019-02-11T10:39:21.301Z,99.084473
2019-02-11T10:40:30.832Z,98.980713
2019-02-11T10:41:40.342Z,99.084473
2019-02-11T10:42:49.849Z,99.145508
2019-02-11T10:43:59.362Z,99.145508
2019-02-11T10:45:08.889Z,99.145508
2019-02-11T10:46:20.932Z,99.188232
2019-02-11T10:47:27.923Z,99.188232
2019-02-11T10:48:37.467Z,99.249268
2019-02-11T10:49:47.025Z,98.773193
2019-02-11T10:50:56.543Z,99.084473
2019-02-11T10:52:06.068Z,99.188232
2019-02-11T10:53:15.599Z,99.188232
2019-02-11T10:54:25.107Z,99.188232
2019-02-11T10:55:34.629Z,99.188232
2019-02-11T10:56:44.157Z,99.291992
2019-02-11T10:57:53.667Z,99.291992
2019-02-11T10:59:03.169Z,99.291992
2019-02-11T11:00:12.688Z,99.291992
2019-02-11T11:01:23.755Z,99.291992
2019-02-11T11:02:31.741Z,99.188232
2019-02-11T11:03:41.242Z,99.291992
2019-02-11T11:04:50.756Z,99.249268
2019-02-11T11:06:00.304Z,99.249268
2019-02-11T11:07:09.839Z,99.249268
2019-02-11T11:08:19.349Z,99.249268
2019-02-11T11:09:28.864Z,99.249268
2019-02-11T11:10:38.397Z,99.145508
2019-02-11T11:11:47.919Z,99.145508
2019-02-11T11:12:57.423Z,99.249268
2019-02-11T11:14:06.945Z,99.041748
2019-02-11T11:15:16.491Z,99.145508
2019-02-11T11:16:29.531Z,99.145508
2019-02-11T11:17:35.527Z,99.041748
2019-02-11T11:18:45.044Z,99.041748
2019-02-11T11:19:54.583Z,98.931885
2019-02-11T11:21:04.099Z,98.931885
2019-02-11T11:22:13.619Z,98.931885
2019-02-11T11:23:23.119Z,98.828125
2019-02-11T11:24:32.633Z,98.7854
2019-02-11T11:25:42.200Z,98.620605
2019-02-11T11:26:51.721Z,98.474121
2019-02-11T11:28:01.250Z,98.370361
2019-02-11T11:29:10.766Z,98.370361
2019-02-11T11:30:20.316Z,98.052979
2019-02-11T11:31:29.811Z,98.370361
2019-02-11T11:32:39.318Z,98.474121
2019-02-11T11:33:48.836Z,98.370361
2019-02-11T11:34:58.357Z,98.370361
2019-02-11T11:36:07.866Z,98.156738
2019-02-11T11:37:17.411Z,98.156738
2019-02-11T11:38:26.955Z,98.260498
2019-02-11T11:39:36.469Z,98.260498
2019-02-11T11:40:46.038Z,98.052979
2019-02-11T11:41:55.564Z,97.949219
2019-02-11T11:43:05.149Z,98.052979
2019-02-11T11:44:14.668Z,97.949219
2019-02-11T11:45:24.236Z,97.949219
2019-02-11T11:46:41.400Z,98.052979
2019-02-11T11:47:44.252Z,98.052979
2019-02-11T11:48:53.794Z,97.949219
2019-02-11T11:50:03.339Z,97.845459
2019-02-11T11:51:12.877Z,97.741699
2019-02-11T11:52:22.389Z,97.741699
2019-02-11T11:53:31.955Z,97.637939
2019-02-11T11:54:41.472Z,97.741699
2019-02-11T11:55:51.005Z,97.741699
2019-02-11T11:57:00.514Z,97.53418
2019-02-11T11:58:10.047Z,97.845459
2019-02-11T11:59:19.596Z,97.637939
2019-02-11T12:00:29.148Z,97.845459
2019-02-11T12:01:38.647Z,97.741699
2019-02-11T12:02:59.956Z,97.845459
2019-02-11T12:03:58.703Z,97.320557
2019-02-11T12:05:09.190Z,97.53418
2019-02-11T12:06:18.721Z,97.741699
2019-02-11T12:07:29.224Z,97.53418
2019-02-11T12:08:38.735Z,97.320557
2019-02-11T12:09:48.270Z,97.216797
2019-02-11T12:10:57.824Z,97.43042
2019-02-11T12:12:07.342Z,97.637939
2019-02-11T12:13:22.779Z,97.680664
2019-02-11T12:14:28.380Z,97.888184
2019-02-11T12:15:37.916Z,97.784424
2019-02-11T12:16:56.517Z,97.784424
2019-02-11T12:17:57.953Z,97.991943
2019-02-11T12:19:07.469Z,97.991943
2019-02-11T12:20:16.962Z,97.991943
2019-02-11T12:21:26.516Z,98.101807
2019-02-11T12:22:36.041Z,98.101807
2019-02-11T12:23:45.564Z,97.991943
2019-02-11T12:24:55.108Z,98.052979
2019-02-11T12:26:04.659Z,97.949219
2019-02-11T12:27:14.149Z,97.888184
2019-02-11T12:28:23.713Z,97.949219
2019-02-11T12:29:33.222Z,97.784424
2019-02-11T12:30:42.815Z,97.888184
2019-02-11T12:31:52.364Z,97.784424
2019-02-11T12:33:01.943Z,97.845459
2019-02-11T12:34:11.464Z,97.845459
2019-02-11T12:35:21.022Z,97.845459
2019-02-11T12:36:30.551Z,97.741699
2019-02-11T12:37:40.096Z,97.53418
2019-02-11T12:38:49.606Z,97.43042
2019-02-11T12:39:59.135Z,97.43042
2019-02-11T12:41:08.669Z,97.43042
2019-02-11T12:42:18.175Z,97.320557
2019-02-11T12:43:27.693Z,97.845459
2019-02-11T12:44:37.274Z,97.43042
2019-02-11T12:45:46.784Z,97.113037
2019-02-11T12:47:12.744Z,97.216797
2019-02-11T12:48:06.827Z,97.216797
2019-02-11T12:49:16.348Z,97.43042
2019-02-11T12:50:25.867Z,97.320557
2019-02-11T12:51:35.431Z,97.637939
2019-02-11T12:52:44.955Z,97.741699
2019-02-11T12:53:54.478Z,97.53418
2019-02-11T12:55:07.372Z,97.43042
2019-02-11T12:56:13.565Z,97.637939
2019-02-11T12:57:23.073Z,97.845459
2019-02-11T12:58:32.599Z,97.741699
2019-02-11T12:59:42.143Z,97.741699
2019-02-11T13:00:51.654Z,97.845459
2019-02-11T13:02:01.182Z,97.741699
2019-02-11T13:03:10.692Z,97.845459
2019-02-11T13:04:20.221Z,97.845459
2019-02-11T13:05:43.781Z,97.637939
2019-02-11T13:06:40.266Z,97.637939
2019-02-11T13:07:49.805Z,97.637939
2019-02-11T13:08:59.343Z,97.637939
2019-02-11T13:10:08.868Z,97.637939
2019-02-11T13:11:18.403Z,97.741699
2019-02-11T13:12:27.980Z,97.637939
2019-02-11T13:13:37.527Z,97.43042
2019-02-11T13:14:47.032Z,97.320557
2019-02-11T13:16:00.513Z,96.905518